Absaraka, North Dakota
Current Conditions -  °F | °C
As of 9:53 PM on Wednesday 22 Oct 2014 (Local Time) from KFAR Reporting Station
Broken Clouds Broken Clouds  
Wind Chill: 54°   Ceiling: 12000
Heat Index: 54°   Visibility: 10mi
Dew Point: 51°   Wind: 8mph
Humidity: 90%   Direction: 210°SSW
Pressure: 29.89"   Gusts: NA
Location:  46.98°N, 97.39°W
Report Text: KFAR 230253Z 21007KT 10SM BKN120 12/11 A2989 RMK AO2 SLP124 T01220106 50006
Loading
Personal Weather Stations






























Interactive Weather Map
Tropical Storm Tracking
New forecast layout! Learn more

10-Day Weather Forecast

Advertisements
Track Severe Weather on mobile